sensor_id;sensor_type;location;lat;lon;timestamp;temperature;humidity
610;DHT22;292;48.800;9.216;2022-08-24T00:00:22;24.10;51.30
610;DHT22;292;48.800;9.216;2022-08-24T00:02:49;24.10;51.40
610;DHT22;292;48.800;9.216;2022-08-24T00:05:17;24.10;51.60
610;DHT22;292;48.800;9.216;2022-08-24T00:07:47;24.00;51.70
610;DHT22;292;48.800;9.216;2022-08-24T00:10:15;24.10;51.70
610;DHT22;292;48.800;9.216;2022-08-24T00:12:43;24.00;51.70
610;DHT22;292;48.800;9.216;2022-08-24T00:15:13;24.00;51.70
610;DHT22;292;48.800;9.216;2022-08-24T00:17:41;24.00;51.80
610;DHT22;292;48.800;9.216;2022-08-24T00:20:10;23.90;52.10
610;DHT22;292;48.800;9.216;2022-08-24T00:22:37;23.90;52.20
610;DHT22;292;48.800;9.216;2022-08-24T00:25:06;23.90;52.20
610;DHT22;292;48.800;9.216;2022-08-24T00:27:33;23.90;52.50
610;DHT22;292;48.800;9.216;2022-08-24T00:30:01;23.80;52.50
610;DHT22;292;48.800;9.216;2022-08-24T00:32:30;23.80;52.50
610;DHT22;292;48.800;9.216;2022-08-24T00:34:57;23.80;52.50
610;DHT22;292;48.800;9.216;2022-08-24T00:37:24;23.80;52.60
610;DHT22;292;48.800;9.216;2022-08-24T00:39:53;23.70;52.80
610;DHT22;292;48.800;9.216;2022-08-24T00:42:20;23.70;53.00
610;DHT22;292;48.800;9.216;2022-08-24T00:44:47;23.70;53.20
610;DHT22;292;48.800;9.216;2022-08-24T00:47:19;23.60;53.20
610;DHT22;292;48.800;9.216;2022-08-24T00:49:53;23.60;53.30
610;DHT22;292;48.800;9.216;2022-08-24T00:52:24;23.60;53.40
610;DHT22;292;48.800;9.216;2022-08-24T00:54:55;23.50;53.40
610;DHT22;292;48.800;9.216;2022-08-24T00:57:27;23.50;53.60
610;DHT22;292;48.800;9.216;2022-08-24T00:59:58;23.50;53.70
610;DHT22;292;48.800;9.216;2022-08-24T01:02:29;23.40;53.80
610;DHT22;292;48.800;9.216;2022-08-24T01:05:00;23.40;54.10
610;DHT22;292;48.800;9.216;2022-08-24T01:07:29;23.30;54.20
610;DHT22;292;48.800;9.216;2022-08-24T01:09:59;23.30;54.20
610;DHT22;292;48.800;9.216;2022-08-24T01:12:29;23.30;54.40
610;DHT22;292;48.800;9.216;2022-08-24T01:14:58;23.20;54.50
610;DHT22;292;48.800;9.216;2022-08-24T01:17:26;23.20;54.50
610;DHT22;292;48.800;9.216;2022-08-24T01:20:13;23.20;54.60
610;DHT22;292;48.800;9.216;2022-08-24T01:22:49;23.20;54.80
610;DHT22;292;48.800;9.216;2022-08-24T01:25:21;23.10;54.90
610;DHT22;292;48.800;9.216;2022-08-24T01:27:49;23.10;55.00
610;DHT22;292;48.800;9.216;2022-08-24T01:30:17;23.00;55.20
610;DHT22;292;48.800;9.216;2022-08-24T01:32:52;23.00;55.60
610;DHT22;292;48.800;9.216;2022-08-24T01:35:19;23.00;55.70
610;DHT22;292;48.800;9.216;2022-08-24T01:37:47;22.90;55.80
610;DHT22;292;48.800;9.216;2022-08-24T01:40:15;22.80;56.10
610;DHT22;292;48.800;9.216;2022-08-24T01:42:48;22.80;56.20
610;DHT22;292;48.800;9.216;2022-08-24T01:45:16;22.80;56.40
610;DHT22;292;48.800;9.216;2022-08-24T01:47:43;22.70;56.50
610;DHT22;292;48.800;9.216;2022-08-24T01:50:11;22.70;56.60
610;DHT22;292;48.800;9.216;2022-08-24T01:52:40;22.70;56.80
610;DHT22;292;48.800;9.216;2022-08-24T01:55:11;22.60;56.90
610;DHT22;292;48.800;9.216;2022-08-24T01:57:38;22.60;56.90
610;DHT22;292;48.800;9.216;2022-08-24T02:00:11;22.50;57.00
610;DHT22;292;48.800;9.216;2022-08-24T02:02:41;22.50;57.20
610;DHT22;292;48.800;9.216;2022-08-24T02:05:10;22.50;57.30
610;DHT22;292;48.800;9.216;2022-08-24T02:07:37;22.40;57.40
610;DHT22;292;48.800;9.216;2022-08-24T02:10:06;22.40;57.60
610;DHT22;292;48.800;9.216;2022-08-24T02:12:34;22.40;57.60
610;DHT22;292;48.800;9.216;2022-08-24T02:15:02;22.30;57.70
610;DHT22;292;48.800;9.216;2022-08-24T02:17:31;22.30;57.80
610;DHT22;292;48.800;9.216;2022-08-24T02:19:59;22.30;58.10
610;DHT22;292;48.800;9.216;2022-08-24T02:22:26;22.20;58.10
610;DHT22;292;48.800;9.216;2022-08-24T02:24:53;22.20;58.10
610;DHT22;292;48.800;9.216;2022-08-24T02:27:20;22.20;58.20
610;DHT22;292;48.800;9.216;2022-08-24T02:29:47;22.10;58.50
610;DHT22;292;48.800;9.216;2022-08-24T02:32:14;22.10;58.50
610;DHT22;292;48.800;9.216;2022-08-24T02:34:43;22.10;58.60
610;DHT22;292;48.800;9.216;2022-08-24T02:37:10;22.10;58.60
610;DHT22;292;48.800;9.216;2022-08-24T02:39:38;22.10;58.80
610;DHT22;292;48.800;9.216;2022-08-24T02:42:05;22.00;58.80
610;DHT22;292;48.800;9.216;2022-08-24T02:44:32;22.00;58.90
610;DHT22;292;48.800;9.216;2022-08-24T02:46:59;22.00;59.00
610;DHT22;292;48.800;9.216;2022-08-24T02:49:26;21.90;59.00
610;DHT22;292;48.800;9.216;2022-08-24T02:51:55;21.90;59.20
610;DHT22;292;48.800;9.216;2022-08-24T02:54:22;21.90;59.30
610;DHT22;292;48.800;9.216;2022-08-24T02:56:49;21.90;59.30
610;DHT22;292;48.800;9.216;2022-08-24T02:59:16;21.90;59.40
610;DHT22;292;48.800;9.216;2022-08-24T03:01:44;21.80;59.40
610;DHT22;292;48.800;9.216;2022-08-24T03:04:13;21.80;59.60
610;DHT22;292;48.800;9.216;2022-08-24T03:06:41;21.80;59.70
610;DHT22;292;48.800;9.216;2022-08-24T03:09:10;21.70;59.80
610;DHT22;292;48.800;9.216;2022-08-24T03:11:38;21.70;60.00
610;DHT22;292;48.800;9.216;2022-08-24T03:14:06;21.70;60.10
610;DHT22;292;48.800;9.216;2022-08-24T03:16:34;21.70;60.10
610;DHT22;292;48.800;9.216;2022-08-24T03:19:01;21.70;60.10
610;DHT22;292;48.800;9.216;2022-08-24T03:21:28;21.70;60.10
610;DHT22;292;48.800;9.216;2022-08-24T03:23:55;21.70;60.20
610;DHT22;292;48.800;9.216;2022-08-24T03:26:23;21.60;60.10
610;DHT22;292;48.800;9.216;2022-08-24T03:28:50;21.50;60.20
610;DHT22;292;48.800;9.216;2022-08-24T03:31:18;21.50;60.20
610;DHT22;292;48.800;9.216;2022-08-24T03:33:45;21.50;60.20
610;DHT22;292;48.800;9.216;2022-08-24T03:36:12;21.50;60.10
610;DHT22;292;48.800;9.216;2022-08-24T03:38:39;21.40;60.00
610;DHT22;292;48.800;9.216;2022-08-24T03:41:06;21.40;59.80
610;DHT22;292;48.800;9.216;2022-08-24T03:43:36;21.40;60.00
610;DHT22;292;48.800;9.216;2022-08-24T03:46:15;21.30;60.00
610;DHT22;292;48.800;9.216;2022-08-24T03:48:43;21.30;60.00
610;DHT22;292;48.800;9.216;2022-08-24T03:51:12;21.20;60.10
610;DHT22;292;48.800;9.216;2022-08-24T03:53:40;21.20;60.20
610;DHT22;292;48.800;9.216;2022-08-24T03:56:07;21.10;60.40
610;DHT22;292;48.800;9.216;2022-08-24T03:58:37;21.10;60.50
610;DHT22;292;48.800;9.216;2022-08-24T04:01:07;21.00;60.70
610;DHT22;292;48.800;9.216;2022-08-24T04:03:35;21.00;61.00
610;DHT22;292;48.800;9.216;2022-08-24T04:06:03;20.90;61.10
610;DHT22;292;48.800;9.216;2022-08-24T04:08:31;20.90;61.40
610;DHT22;292;48.800;9.216;2022-08-24T04:10:59;20.80;61.70
610;DHT22;292;48.800;9.216;2022-08-24T04:13:26;20.80;62.00
610;DHT22;292;48.800;9.216;2022-08-24T04:16:02;20.70;62.10
610;DHT22;292;48.800;9.216;2022-08-24T04:18:30;20.70;62.40
610;DHT22;292;48.800;9.216;2022-08-24T04:20:57;20.70;62.50
610;DHT22;292;48.800;9.216;2022-08-24T04:23:24;20.60;63.00
610;DHT22;292;48.800;9.216;2022-08-24T04:25:51;20.60;63.30
610;DHT22;292;48.800;9.216;2022-08-24T04:28:20;20.50;63.60
610;DHT22;292;48.800;9.216;2022-08-24T04:30:48;20.50;63.70
610;DHT22;292;48.800;9.216;2022-08-24T04:33:18;20.40;63.80
610;DHT22;292;48.800;9.216;2022-08-24T04:35:47;20.40;64.10
610;DHT22;292;48.800;9.216;2022-08-24T04:38:15;20.30;64.30
610;DHT22;292;48.800;9.216;2022-08-24T04:40:44;20.30;64.40
610;DHT22;292;48.800;9.216;2022-08-24T04:43:13;20.20;64.70
610;DHT22;292;48.800;9.216;2022-08-24T04:45:43;20.20;64.90
610;DHT22;292;48.800;9.216;2022-08-24T04:48:11;20.10;65.00
610;DHT22;292;48.800;9.216;2022-08-24T04:50:42;20.10;65.10
610;DHT22;292;48.800;9.216;2022-08-24T04:53:11;20.10;65.10
610;DHT22;292;48.800;9.216;2022-08-24T04:55:43;20.10;65.30
610;DHT22;292;48.800;9.216;2022-08-24T04:58:11;20.10;65.60
610;DHT22;292;48.800;9.216;2022-08-24T05:00:38;20.10;65.60
610;DHT22;292;48.800;9.216;2022-08-24T05:03:05;20.10;65.70
610;DHT22;292;48.800;9.216;2022-08-24T05:05:33;20.10;65.90
610;DHT22;292;48.800;9.216;2022-08-24T05:08:02;20.10;65.90
610;DHT22;292;48.800;9.216;2022-08-24T05:10:29;20.10;65.90
610;DHT22;292;48.800;9.216;2022-08-24T05:12:56;20.10;65.90
610;DHT22;292;48.800;9.216;2022-08-24T05:15:23;20.10;66.00
610;DHT22;292;48.800;9.216;2022-08-24T05:17:50;20.10;66.00
610;DHT22;292;48.800;9.216;2022-08-24T05:20:17;20.10;66.00
610;DHT22;292;48.800;9.216;2022-08-24T05:22:46;20.10;66.20
610;DHT22;292;48.800;9.216;2022-08-24T05:25:14;20.10;66.00
610;DHT22;292;48.800;9.216;2022-08-24T05:27:41;20.10;66.00
610;DHT22;292;48.800;9.216;2022-08-24T05:30:09;20.10;65.70
610;DHT22;292;48.800;9.216;2022-08-24T05:32:37;20.10;65.70
610;DHT22;292;48.800;9.216;2022-08-24T05:35:05;20.10;65.70
610;DHT22;292;48.800;9.216;2022-08-24T05:37:34;20.20;65.70
610;DHT22;292;48.800;9.216;2022-08-24T05:40:04;20.20;65.60
610;DHT22;292;48.800;9.216;2022-08-24T05:42:33;20.20;65.40
610;DHT22;292;48.800;9.216;2022-08-24T05:45:00;20.30;65.40
610;DHT22;292;48.800;9.216;2022-08-24T05:47:27;20.30;65.40
610;DHT22;292;48.800;9.216;2022-08-24T05:49:54;20.30;65.30
610;DHT22;292;48.800;9.216;2022-08-24T05:52:21;20.40;65.30
610;DHT22;292;48.800;9.216;2022-08-24T05:54:51;20.40;65.10
610;DHT22;292;48.800;9.216;2022-08-24T05:57:19;20.40;65.00
610;DHT22;292;48.800;9.216;2022-08-24T05:59:48;20.50;65.00
610;DHT22;292;48.800;9.216;2022-08-24T06:02:16;20.50;64.90
610;DHT22;292;48.800;9.216;2022-08-24T06:04:43;20.60;64.90
610;DHT22;292;48.800;9.216;2022-08-24T06:07:11;20.60;64.70
610;DHT22;292;48.800;9.216;2022-08-24T06:09:39;20.70;64.30
610;DHT22;292;48.800;9.216;2022-08-24T06:12:09;20.80;64.10
610;DHT22;292;48.800;9.216;2022-08-24T06:14:36;20.90;63.80
610;DHT22;292;48.800;9.216;2022-08-24T06:17:06;20.90;63.70
610;DHT22;292;48.800;9.216;2022-08-24T06:19:34;21.00;63.30
610;DHT22;292;48.800;9.216;2022-08-24T06:22:01;21.10;63.10
610;DHT22;292;48.800;9.216;2022-08-24T06:24:28;21.10;62.80
610;DHT22;292;48.800;9.216;2022-08-24T06:27:14;21.10;62.50
610;DHT22;292;48.800;9.216;2022-08-24T06:29:47;21.10;62.30
610;DHT22;292;48.800;9.216;2022-08-24T06:32:15;21.20;62.10
610;DHT22;292;48.800;9.216;2022-08-24T06:34:43;21.20;62.00
610;DHT22;292;48.800;9.216;2022-08-24T06:37:10;21.30;61.80
610;DHT22;292;48.800;9.216;2022-08-24T06:39:37;21.30;61.70
610;DHT22;292;48.800;9.216;2022-08-24T06:42:04;21.40;61.40
610;DHT22;292;48.800;9.216;2022-08-24T06:44:32;21.40;61.20
610;DHT22;292;48.800;9.216;2022-08-24T06:46:59;21.50;61.20
610;DHT22;292;48.800;9.216;2022-08-24T06:49:28;21.50;61.00
610;DHT22;292;48.800;9.216;2022-08-24T06:51:55;21.50;61.00
610;DHT22;292;48.800;9.216;2022-08-24T06:54:22;21.60;60.70
610;DHT22;292;48.800;9.216;2022-08-24T06:56:49;21.60;60.50
610;DHT22;292;48.800;9.216;2022-08-24T06:59:17;21.70;60.20
610;DHT22;292;48.800;9.216;2022-08-24T07:01:45;21.70;60.10
610;DHT22;292;48.800;9.216;2022-08-24T07:04:12;21.80;60.00
610;DHT22;292;48.800;9.216;2022-08-24T07:06:41;21.80;59.80
610;DHT22;292;48.800;9.216;2022-08-24T07:09:08;21.80;59.80
610;DHT22;292;48.800;9.216;2022-08-24T07:11:35;21.90;59.70
610;DHT22;292;48.800;9.216;2022-08-24T07:14:02;22.00;59.70
610;DHT22;292;48.800;9.216;2022-08-24T07:16:31;22.00;59.40
610;DHT22;292;48.800;9.216;2022-08-24T07:18:59;22.10;59.20
610;DHT22;292;48.800;9.216;2022-08-24T07:21:28;22.20;58.90
610;DHT22;292;48.800;9.216;2022-08-24T07:24:00;22.30;58.60
610;DHT22;292;48.800;9.216;2022-08-24T07:26:38;22.40;58.40
610;DHT22;292;48.800;9.216;2022-08-24T07:29:10;22.50;58.10
610;DHT22;292;48.800;9.216;2022-08-24T07:31:41;22.60;57.80
610;DHT22;292;48.800;9.216;2022-08-24T07:34:09;22.70;57.60
610;DHT22;292;48.800;9.216;2022-08-24T07:36:38;22.80;57.30
610;DHT22;292;48.800;9.216;2022-08-24T07:39:07;23.00;56.90
610;DHT22;292;48.800;9.216;2022-08-24T07:41:37;23.10;56.40
610;DHT22;292;48.800;9.216;2022-08-24T07:44:06;23.20;56.00
610;DHT22;292;48.800;9.216;2022-08-24T07:46:33;23.30;55.70
610;DHT22;292;48.800;9.216;2022-08-24T07:49:01;23.40;54.90
610;DHT22;292;48.800;9.216;2022-08-24T07:51:28;23.50;54.40
610;DHT22;292;48.800;9.216;2022-08-24T07:53:55;23.60;53.80
610;DHT22;292;48.800;9.216;2022-08-24T07:56:24;23.70;53.40
610;DHT22;292;48.800;9.216;2022-08-24T07:58:53;23.80;53.40
610;DHT22;292;48.800;9.216;2022-08-24T08:01:21;23.80;53.30
610;DHT22;292;48.800;9.216;2022-08-24T08:03:49;23.90;52.80
610;DHT22;292;48.800;9.216;2022-08-24T08:06:17;23.90;52.20
610;DHT22;292;48.800;9.216;2022-08-24T08:08:44;24.00;51.80
610;DHT22;292;48.800;9.216;2022-08-24T08:11:11;24.10;51.40
610;DHT22;292;48.800;9.216;2022-08-24T08:13:40;24.10;51.40
610;DHT22;292;48.800;9.216;2022-08-24T08:16:08;24.20;51.40
610;DHT22;292;48.800;9.216;2022-08-24T08:18:35;24.30;51.30
610;DHT22;292;48.800;9.216;2022-08-24T08:21:02;24.40;51.00
610;DHT22;292;48.800;9.216;2022-08-24T08:23:30;24.50;50.90
610;DHT22;292;48.800;9.216;2022-08-24T08:26:26;24.50;50.60
610;DHT22;292;48.800;9.216;2022-08-24T08:28:55;24.70;50.40
610;DHT22;292;48.800;9.216;2022-08-24T08:31:22;24.70;49.70
610;DHT22;292;48.800;9.216;2022-08-24T08:33:49;24.80;49.60
610;DHT22;292;48.800;9.216;2022-08-24T08:36:17;24.90;49.40
610;DHT22;292;48.800;9.216;2022-08-24T08:38:47;24.90;49.30
610;DHT22;292;48.800;9.216;2022-08-24T08:41:48;25.00;49.20
610;DHT22;292;48.800;9.216;2022-08-24T08:44:38;25.00;48.90
610;DHT22;292;48.800;9.216;2022-08-24T08:47:20;25.00;48.80
610;DHT22;292;48.800;9.216;2022-08-24T08:50:02;25.10;48.50
610;DHT22;292;48.800;9.216;2022-08-24T08:55:26;25.20;48.10
610;DHT22;292;48.800;9.216;2022-08-24T08:58:14;25.30;48.00
610;DHT22;292;48.800;9.216;2022-08-24T09:01:04;25.40;47.70
610;DHT22;292;48.800;9.216;2022-08-24T09:06:58;25.60;46.50
610;DHT22;292;48.800;9.216;2022-08-24T09:09:45;25.80;45.80
610;DHT22;292;48.800;9.216;2022-08-24T09:12:23;25.90;45.30
610;DHT22;292;48.800;9.216;2022-08-24T09:15:13;26.10;44.90
610;DHT22;292;48.800;9.216;2022-08-24T09:18:02;26.20;44.40
610;DHT22;292;48.800;9.216;2022-08-24T09:20:49;26.30;43.60
610;DHT22;292;48.800;9.216;2022-08-24T09:23:29;26.50;43.00
610;DHT22;292;48.800;9.216;2022-08-24T09:26:02;26.60;42.40
610;DHT22;292;48.800;9.216;2022-08-24T09:28:40;26.80;41.60
610;DHT22;292;48.800;9.216;2022-08-24T09:31:44;26.90;41.20
610;DHT22;292;48.800;9.216;2022-08-24T09:34:33;27.10;40.60
610;DHT22;292;48.800;9.216;2022-08-24T09:37:11;27.20;40.00
610;DHT22;292;48.800;9.216;2022-08-24T09:39:59;27.40;39.80
610;DHT22;292;48.800;9.216;2022-08-24T09:45:58;27.60;39.00
610;DHT22;292;48.800;9.216;2022-08-24T09:51:52;27.80;38.50
610;DHT22;292;48.800;9.216;2022-08-24T09:54:47;27.90;38.40
610;DHT22;292;48.800;9.216;2022-08-24T09:57:41;28.00;38.20
610;DHT22;292;48.800;9.216;2022-08-24T10:00:16;28.10;38.00
610;DHT22;292;48.800;9.216;2022-08-24T10:02:54;28.20;37.70
610;DHT22;292;48.800;9.216;2022-08-24T10:05:29;28.30;37.30
610;DHT22;292;48.800;9.216;2022-08-24T10:08:12;28.30;37.20
610;DHT22;292;48.800;9.216;2022-08-24T10:10:48;28.40;37.00
610;DHT22;292;48.800;9.216;2022-08-24T10:13:24;28.50;37.00
610;DHT22;292;48.800;9.216;2022-08-24T10:16:06;28.60;36.60
610;DHT22;292;48.800;9.216;2022-08-24T10:18:49;28.70;36.10
610;DHT22;292;48.800;9.216;2022-08-24T10:21:34;28.70;36.00
610;DHT22;292;48.800;9.216;2022-08-24T10:27:19;28.80;36.00
610;DHT22;292;48.800;9.216;2022-08-24T10:33:03;29.00;35.80
610;DHT22;292;48.800;9.216;2022-08-24T10:35:35;29.10;35.80
610;DHT22;292;48.800;9.216;2022-08-24T10:38:29;29.10;35.80
610;DHT22;292;48.800;9.216;2022-08-24T10:41:47;29.20;35.70
610;DHT22;292;48.800;9.216;2022-08-24T10:44:49;29.30;35.60
610;DHT22;292;48.800;9.216;2022-08-24T10:47:23;29.40;35.30
610;DHT22;292;48.800;9.216;2022-08-24T10:53:23;29.50;34.20
610;DHT22;292;48.800;9.216;2022-08-24T10:56:05;29.60;33.70
610;DHT22;292;48.800;9.216;2022-08-24T10:58:54;29.60;33.60
610;DHT22;292;48.800;9.216;2022-08-24T11:01:28;29.70;33.80
610;DHT22;292;48.800;9.216;2022-08-24T11:04:01;29.80;34.10
610;DHT22;292;48.800;9.216;2022-08-24T11:06:31;29.80;34.40
610;DHT22;292;48.800;9.216;2022-08-24T11:09:04;29.90;34.20
610;DHT22;292;48.800;9.216;2022-08-24T11:11:34;30.00;34.20
610;DHT22;292;48.800;9.216;2022-08-24T11:14:08;30.10;34.10
610;DHT22;292;48.800;9.216;2022-08-24T11:16:50;30.20;34.10
610;DHT22;292;48.800;9.216;2022-08-24T11:19:29;30.30;34.10
610;DHT22;292;48.800;9.216;2022-08-24T11:21:59;30.40;33.60
610;DHT22;292;48.800;9.216;2022-08-24T11:24:36;30.40;33.20
610;DHT22;292;48.800;9.216;2022-08-24T11:27:16;30.50;32.80
610;DHT22;292;48.800;9.216;2022-08-24T11:30:13;30.60;32.50
610;DHT22;292;48.800;9.216;2022-08-24T11:32:45;30.70;31.80
610;DHT22;292;48.800;9.216;2022-08-24T11:35:21;30.80;31.60
610;DHT22;292;48.800;9.216;2022-08-24T11:37:51;31.00;31.20
610;DHT22;292;48.800;9.216;2022-08-24T11:40:29;31.10;30.90
610;DHT22;292;48.800;9.216;2022-08-24T11:43:15;31.20;31.20
610;DHT22;292;48.800;9.216;2022-08-24T11:45:49;31.30;30.80
610;DHT22;292;48.800;9.216;2022-08-24T11:48:32;31.40;30.60
610;DHT22;292;48.800;9.216;2022-08-24T11:51:09;31.40;30.10
610;DHT22;292;48.800;9.216;2022-08-24T11:53:58;31.50;29.90
610;DHT22;292;48.800;9.216;2022-08-24T11:56:33;31.50;29.60
610;DHT22;292;48.800;9.216;2022-08-24T11:59:07;31.60;29.60
610;DHT22;292;48.800;9.216;2022-08-24T12:01:44;31.70;29.50
610;DHT22;292;48.800;9.216;2022-08-24T12:07:14;31.80;29.00
610;DHT22;292;48.800;9.216;2022-08-24T12:10:00;31.90;28.90
610;DHT22;292;48.800;9.216;2022-08-24T12:12:33;31.90;28.90
610;DHT22;292;48.800;9.216;2022-08-24T12:15:08;32.00;28.80
610;DHT22;292;48.800;9.216;2022-08-24T12:17:41;32.10;28.60
610;DHT22;292;48.800;9.216;2022-08-24T12:20:25;32.10;28.40
610;DHT22;292;48.800;9.216;2022-08-24T12:23:00;32.20;28.10
610;DHT22;292;48.800;9.216;2022-08-24T12:25:30;32.30;28.10
610;DHT22;292;48.800;9.216;2022-08-24T12:28:21;32.30;28.00
610;DHT22;292;48.800;9.216;2022-08-24T12:30:52;32.40;27.90
610;DHT22;292;48.800;9.216;2022-08-24T12:33:26;32.40;28.00
610;DHT22;292;48.800;9.216;2022-08-24T12:36:06;32.40;27.90
610;DHT22;292;48.800;9.216;2022-08-24T12:38:42;32.40;27.70
610;DHT22;292;48.800;9.216;2022-08-24T12:41:16;32.50;27.60
610;DHT22;292;48.800;9.216;2022-08-24T12:43:47;32.50;27.40
610;DHT22;292;48.800;9.216;2022-08-24T12:46:19;32.50;27.30
610;DHT22;292;48.800;9.216;2022-08-24T12:48:50;32.50;27.30
610;DHT22;292;48.800;9.216;2022-08-24T12:51:23;32.50;27.30
610;DHT22;292;48.800;9.216;2022-08-24T12:57:14;32.60;27.20
610;DHT22;292;48.800;9.216;2022-08-24T12:59:48;32.60;27.20
610;DHT22;292;48.800;9.216;2022-08-24T13:02:29;32.60;27.30
610;DHT22;292;48.800;9.216;2022-08-24T13:05:04;32.60;27.20
610;DHT22;292;48.800;9.216;2022-08-24T13:07:41;32.60;27.20
610;DHT22;292;48.800;9.216;2022-08-24T13:10:15;32.60;27.00
610;DHT22;292;48.800;9.216;2022-08-24T13:13:21;32.60;26.90
610;DHT22;292;48.800;9.216;2022-08-24T13:15:55;32.70;26.70
610;DHT22;292;48.800;9.216;2022-08-24T13:18:48;32.70;26.70
610;DHT22;292;48.800;9.216;2022-08-24T13:21:40;32.90;26.30
610;DHT22;292;48.800;9.216;2022-08-24T13:27:48;33.10;26.10
610;DHT22;292;48.800;9.216;2022-08-24T13:30:30;33.30;26.20
610;DHT22;292;48.800;9.216;2022-08-24T13:33:05;33.40;26.30
610;DHT22;292;48.800;9.216;2022-08-24T13:35:54;33.40;26.20
610;DHT22;292;48.800;9.216;2022-08-24T13:38:42;33.50;26.40
610;DHT22;292;48.800;9.216;2022-08-24T13:41:20;33.50;26.30
610;DHT22;292;48.800;9.216;2022-08-24T13:43:58;33.60;26.30
610;DHT22;292;48.800;9.216;2022-08-24T13:46:40;33.70;26.20
610;DHT22;292;48.800;9.216;2022-08-24T13:49:20;33.70;26.00
610;DHT22;292;48.800;9.216;2022-08-24T13:51:54;33.80;26.10
610;DHT22;292;48.800;9.216;2022-08-24T13:54:29;33.80;26.20
610;DHT22;292;48.800;9.216;2022-08-24T13:57:17;33.80;26.20
610;DHT22;292;48.800;9.216;2022-08-24T14:00:13;33.90;26.30
610;DHT22;292;48.800;9.216;2022-08-24T14:02:56;33.90;26.40
610;DHT22;292;48.800;9.216;2022-08-24T14:05:32;34.00;26.90
610;DHT22;292;48.800;9.216;2022-08-24T14:08:09;34.00;26.80
610;DHT22;292;48.800;9.216;2022-08-24T14:10:47;34.10;26.60
610;DHT22;292;48.800;9.216;2022-08-24T14:13:28;34.10;26.60
610;DHT22;292;48.800;9.216;2022-08-24T14:16:01;34.10;26.70
610;DHT22;292;48.800;9.216;2022-08-24T14:18:56;34.10;26.70
610;DHT22;292;48.800;9.216;2022-08-24T14:21:35;34.20;26.90
610;DHT22;292;48.800;9.216;2022-08-24T14:24:07;34.20;27.00
610;DHT22;292;48.800;9.216;2022-08-24T14:33:17;34.30;27.20
610;DHT22;292;48.800;9.216;2022-08-24T14:35:58;34.40;27.40
610;DHT22;292;48.800;9.216;2022-08-24T14:38:56;34.40;27.40
610;DHT22;292;48.800;9.216;2022-08-24T14:41:40;34.40;27.30
610;DHT22;292;48.800;9.216;2022-08-24T14:44:32;34.40;27.40
610;DHT22;292;48.800;9.216;2022-08-24T14:47:07;34.30;27.60
610;DHT22;292;48.800;9.216;2022-08-24T14:49:50;34.20;27.70
610;DHT22;292;48.800;9.216;2022-08-24T14:52:45;34.10;27.90
610;DHT22;292;48.800;9.216;2022-08-24T14:55:19;34.10;28.10
610;DHT22;292;48.800;9.216;2022-08-24T14:57:57;34.10;28.10
610;DHT22;292;48.800;9.216;2022-08-24T15:00:47;34.10;28.10
610;DHT22;292;48.800;9.216;2022-08-24T15:03:26;34.10;28.20
610;DHT22;292;48.800;9.216;2022-08-24T15:06:09;34.00;28.50
610;DHT22;292;48.800;9.216;2022-08-24T15:08:42;34.10;28.50
610;DHT22;292;48.800;9.216;2022-08-24T15:11:11;34.10;28.40
610;DHT22;292;48.800;9.216;2022-08-24T15:13:43;34.10;28.40
610;DHT22;292;48.800;9.216;2022-08-24T15:16:15;34.10;28.60
610;DHT22;292;48.800;9.216;2022-08-24T15:18:48;34.20;28.40
610;DHT22;292;48.800;9.216;2022-08-24T15:21:39;34.20;28.40
610;DHT22;292;48.800;9.216;2022-08-24T15:24:14;34.20;28.50
610;DHT22;292;48.800;9.216;2022-08-24T15:27:00;34.20;28.60
610;DHT22;292;48.800;9.216;2022-08-24T15:29:32;34.20;28.60
610;DHT22;292;48.800;9.216;2022-08-24T15:32:03;34.20;28.60
610;DHT22;292;48.800;9.216;2022-08-24T15:34:38;34.10;28.80
610;DHT22;292;48.800;9.216;2022-08-24T15:37:07;34.10;29.00
610;DHT22;292;48.800;9.216;2022-08-24T15:39:35;34.10;29.10
610;DHT22;292;48.800;9.216;2022-08-24T15:42:07;34.10;29.10
610;DHT22;292;48.800;9.216;2022-08-24T15:44:36;34.10;29.30
610;DHT22;292;48.800;9.216;2022-08-24T15:47:16;34.10;29.50
610;DHT22;292;48.800;9.216;2022-08-24T15:49:47;34.10;29.50
610;DHT22;292;48.800;9.216;2022-08-24T15:52:47;34.10;29.50
610;DHT22;292;48.800;9.216;2022-08-24T15:55:31;34.10;29.70
610;DHT22;292;48.800;9.216;2022-08-24T15:58:18;34.10;29.70
610;DHT22;292;48.800;9.216;2022-08-24T16:00:47;34.10;29.70
610;DHT22;292;48.800;9.216;2022-08-24T16:03:44;34.10;29.70
610;DHT22;292;48.800;9.216;2022-08-24T16:06:34;34.10;29.80
610;DHT22;292;48.800;9.216;2022-08-24T16:09:07;34.10;29.90
610;DHT22;292;48.800;9.216;2022-08-24T16:11:37;34.00;30.10
610;DHT22;292;48.800;9.216;2022-08-24T16:14:09;34.00;30.10
610;DHT22;292;48.800;9.216;2022-08-24T16:16:39;34.00;30.20
610;DHT22;292;48.800;9.216;2022-08-24T16:19:18;33.90;30.20
610;DHT22;292;48.800;9.216;2022-08-24T16:21:52;33.80;30.20
610;DHT22;292;48.800;9.216;2022-08-24T16:24:28;33.70;30.50
610;DHT22;292;48.800;9.216;2022-08-24T16:26:59;33.60;30.60
610;DHT22;292;48.800;9.216;2022-08-24T16:29:46;33.50;30.60
610;DHT22;292;48.800;9.216;2022-08-24T16:32:16;33.40;30.90
610;DHT22;292;48.800;9.216;2022-08-24T16:34:45;33.40;30.90
610;DHT22;292;48.800;9.216;2022-08-24T16:37:13;33.30;31.00
610;DHT22;292;48.800;9.216;2022-08-24T16:39:42;33.20;31.20
610;DHT22;292;48.800;9.216;2022-08-24T16:42:11;33.10;31.30
610;DHT22;292;48.800;9.216;2022-08-24T16:44:41;33.00;31.40
610;DHT22;292;48.800;9.216;2022-08-24T16:47:09;32.90;31.60
610;DHT22;292;48.800;9.216;2022-08-24T16:49:36;32.80;31.60
610;DHT22;292;48.800;9.216;2022-08-24T16:52:04;32.70;31.70
610;DHT22;292;48.800;9.216;2022-08-24T16:54:32;32.60;32.10
610;DHT22;292;48.800;9.216;2022-08-24T16:57:06;32.40;32.40
610;DHT22;292;48.800;9.216;2022-08-24T16:59:34;32.30;32.60
610;DHT22;292;48.800;9.216;2022-08-24T17:02:02;32.20;32.80
610;DHT22;292;48.800;9.216;2022-08-24T17:04:29;32.10;33.20
610;DHT22;292;48.800;9.216;2022-08-24T17:06:56;32.00;33.40
610;DHT22;292;48.800;9.216;2022-08-24T17:09:23;31.90;33.80
610;DHT22;292;48.800;9.216;2022-08-24T17:11:50;31.80;34.00
610;DHT22;292;48.800;9.216;2022-08-24T17:14:19;31.70;34.10
610;DHT22;292;48.800;9.216;2022-08-24T17:16:46;31.70;34.20
610;DHT22;292;48.800;9.216;2022-08-24T17:19:17;31.60;34.40
610;DHT22;292;48.800;9.216;2022-08-24T17:21:45;31.60;34.50
610;DHT22;292;48.800;9.216;2022-08-24T17:24:12;31.50;34.60
610;DHT22;292;48.800;9.216;2022-08-24T17:26:41;31.40;34.80
610;DHT22;292;48.800;9.216;2022-08-24T17:29:09;31.30;35.00
610;DHT22;292;48.800;9.216;2022-08-24T17:31:38;31.20;35.20
610;DHT22;292;48.800;9.216;2022-08-24T17:34:06;31.10;35.40
610;DHT22;292;48.800;9.216;2022-08-24T17:36:34;31.10;35.60
610;DHT22;292;48.800;9.216;2022-08-24T17:39:02;31.10;35.70
610;DHT22;292;48.800;9.216;2022-08-24T17:41:31;31.00;35.70
610;DHT22;292;48.800;9.216;2022-08-24T17:43:59;31.00;35.80
610;DHT22;292;48.800;9.216;2022-08-24T17:46:27;30.90;36.10
610;DHT22;292;48.800;9.216;2022-08-24T17:48:56;30.90;36.10
610;DHT22;292;48.800;9.216;2022-08-24T17:51:24;30.90;36.20